ワシントン/ダレス の空港の天気 - METARとTAF

ワシントン・ダレス国際空港 ( KIAD / IAD ) - アメリカ バージニア州ダレス
飛行場実況気象(Metar)
観測時間05/26 19:52 EDT (05/26 23:52 UTC)
風向・風速南 5m/s
視程10km以上
天気現象
少しの雲 雲底高度 1830m
全天の8割程度の雲 雲底高度 4570m
全天の8割程度の雲 雲底高度 7620m
気温23.3℃
湿度66%
気圧1020.9hPa
METARKIAD 262352Z 17009KT 10SM FEW060 BKN150 BKN250 23/17 A3015 RMK AO2 SLP209 T02330167 10272 20233 55000
過去の天気等 Google飛行場航空写真 Wunderground天気予報

過去48時間のMETAR

飛行場予報(TAF)
発表時間: 5/26 19:20 EDT (5/26 23:20 UTC)
予報対象時間: 26日20時 EDT ~ 28日2時 EDT
風向・風速南南東 3m/s
視程10km以上
全天の4割程度の雲 雲底高度 1520m
全天の8割程度の雲 雲底高度 7620m
27日2時 EDT から
風向・風速南南東 2m/s
視程10km以上
全天の8割程度の雲 雲底高度 460m
27日4時 EDT から
風向・風速南東 2m/s
視程4830m
天気現象弱い霧雨 もや
全天の8割程度の雲 雲底高度 90m
全天を覆う雲 雲底高度 240m
27日10時 EDT から
風向・風速東南東 3m/s
視程10km以上
全天の8割程度の雲 雲底高度 300m
全天の8割程度の雲 雲底高度 6100m
27日14時 EDT から
風向・風速南東 4m/s
視程10km以上
全天の8割程度の雲 雲底高度 910m
全天の8割程度の雲 雲底高度 3960m
28日0時 EDT から
風向・風速東南東 4m/s
視程8050m
天気現象もや
全天の8割程度の雲 雲底高度 240m
全天の8割程度の雲 雲底高度 1520m
全天を覆う雲 雲底高度 3960m
KIAD 262320Z 2700/2806 15005KT P6SM SCT050 BKN250
FM270600 15004KT P6SM BKN015
FM270800 14004KT 3SM -DZ BR BKN003 OVC008
FM271400 12005KT P6SM BKN010 BKN200
FM271800 14008KT P6SM BKN030 BKN130
FM280400 12007KT 5SM BR BKN008 BKN050 OVC130